sensor_id;sensor_type;location;lat;lon;timestamp;P1;durP1;ratioP1;P2;durP2;ratioP2
48621;SDS011;34421;48.944;9.460;2022-11-20T00:01:41;2.63;;;1.50;;
48621;SDS011;34421;48.944;9.460;2022-11-20T00:04:07;2.92;;;1.50;;
48621;SDS011;34421;48.944;9.460;2022-11-20T00:06:33;4.47;;;2.20;;
48621;SDS011;34421;48.944;9.460;2022-11-20T00:08:59;2.97;;;1.55;;
48621;SDS011;34421;48.944;9.460;2022-11-20T00:11:25;3.28;;;1.48;;
48621;SDS011;34421;48.944;9.460;2022-11-20T00:13:53;3.97;;;2.03;;
48621;SDS011;34421;48.944;9.460;2022-11-20T00:16:22;2.17;;;1.42;;
48621;SDS011;34421;48.944;9.460;2022-11-20T00:18:49;3.00;;;1.48;;
48621;SDS011;34421;48.944;9.460;2022-11-20T00:21:17;3.20;;;1.52;;
48621;SDS011;34421;48.944;9.460;2022-11-20T00:23:47;3.13;;;1.60;;
48621;SDS011;34421;48.944;9.460;2022-11-20T00:26:14;3.10;;;1.80;;
48621;SDS011;34421;48.944;9.460;2022-11-20T00:28:41;3.03;;;1.70;;
48621;SDS011;34421;48.944;9.460;2022-11-20T00:31:11;4.15;;;1.70;;
48621;SDS011;34421;48.944;9.460;2022-11-20T00:33:39;3.35;;;1.63;;
48621;SDS011;34421;48.944;9.460;2022-11-20T00:36:06;5.35;;;2.60;;
48621;SDS011;34421;48.944;9.460;2022-11-20T00:38:33;5.63;;;2.05;;
48621;SDS011;34421;48.944;9.460;2022-11-20T00:41:00;4.10;;;2.10;;
48621;SDS011;34421;48.944;9.460;2022-11-20T00:43:27;2.95;;;1.67;;
48621;SDS011;34421;48.944;9.460;2022-11-20T00:46:03;6.05;;;3.20;;
48621;SDS011;34421;48.944;9.460;2022-11-20T00:48:31;3.67;;;1.88;;
48621;SDS011;34421;48.944;9.460;2022-11-20T00:50:56;4.95;;;2.58;;
48621;SDS011;34421;48.944;9.460;2022-11-20T00:53:22;4.00;;;2.53;;
48621;SDS011;34421;48.944;9.460;2022-11-20T00:56:01;6.13;;;2.72;;
48621;SDS011;34421;48.944;9.460;2022-11-20T00:58:29;5.95;;;3.13;;
48621;SDS011;34421;48.944;9.460;2022-11-20T01:01:00;5.55;;;2.92;;
48621;SDS011;34421;48.944;9.460;2022-11-20T01:03:49;4.93;;;2.95;;
48621;SDS011;34421;48.944;9.460;2022-11-20T01:08:43;6.80;;;3.13;;
48621;SDS011;34421;48.944;9.460;2022-11-20T01:11:10;5.10;;;2.90;;
48621;SDS011;34421;48.944;9.460;2022-11-20T01:13:37;6.70;;;3.55;;
48621;SDS011;34421;48.944;9.460;2022-11-20T01:18:36;6.47;;;3.38;;
48621;SDS011;34421;48.944;9.460;2022-11-20T01:21:10;5.85;;;2.95;;
48621;SDS011;34421;48.944;9.460;2022-11-20T01:23:38;5.03;;;2.63;;
48621;SDS011;34421;48.944;9.460;2022-11-20T01:26:08;5.38;;;2.85;;
48621;SDS011;34421;48.944;9.460;2022-11-20T01:28:35;6.18;;;3.00;;
48621;SDS011;34421;48.944;9.460;2022-11-20T01:31:01;5.88;;;3.00;;
48621;SDS011;34421;48.944;9.460;2022-11-20T01:36:04;5.67;;;3.17;;
48621;SDS011;34421;48.944;9.460;2022-11-20T01:38:30;5.95;;;2.75;;
48621;SDS011;34421;48.944;9.460;2022-11-20T01:40:56;4.93;;;2.50;;
48621;SDS011;34421;48.944;9.460;2022-11-20T01:43:22;9.43;;;4.78;;
48621;SDS011;34421;48.944;9.460;2022-11-20T01:46:12;6.55;;;3.50;;
48621;SDS011;34421;48.944;9.460;2022-11-20T01:48:47;5.70;;;3.05;;
48621;SDS011;34421;48.944;9.460;2022-11-20T01:51:21;5.40;;;2.50;;
48621;SDS011;34421;48.944;9.460;2022-11-20T01:53:49;4.38;;;2.50;;
48621;SDS011;34421;48.944;9.460;2022-11-20T01:56:16;6.00;;;2.72;;
48621;SDS011;34421;48.944;9.460;2022-11-20T01:58:44;4.95;;;2.50;;
48621;SDS011;34421;48.944;9.460;2022-11-20T02:01:13;5.72;;;2.83;;
48621;SDS011;34421;48.944;9.460;2022-11-20T02:03:39;4.65;;;2.28;;
48621;SDS011;34421;48.944;9.460;2022-11-20T02:09:13;6.40;;;3.17;;
48621;SDS011;34421;48.944;9.460;2022-11-20T02:11:39;6.47;;;3.55;;
48621;SDS011;34421;48.944;9.460;2022-11-20T02:14:04;7.63;;;3.50;;
48621;SDS011;34421;48.944;9.460;2022-11-20T02:16:31;5.10;;;3.10;;
48621;SDS011;34421;48.944;9.460;2022-11-20T02:19:01;7.03;;;2.72;;
48621;SDS011;34421;48.944;9.460;2022-11-20T02:24:01;5.68;;;3.10;;
48621;SDS011;34421;48.944;9.460;2022-11-20T02:26:34;4.13;;;2.72;;
48621;SDS011;34421;48.944;9.460;2022-11-20T02:29:04;5.88;;;2.90;;
48621;SDS011;34421;48.944;9.460;2022-11-20T02:31:33;4.80;;;2.80;;
48621;SDS011;34421;48.944;9.460;2022-11-20T02:34:01;5.10;;;2.45;;
48621;SDS011;34421;48.944;9.460;2022-11-20T02:36:26;6.20;;;2.85;;
48621;SDS011;34421;48.944;9.460;2022-11-20T02:38:53;6.18;;;3.05;;
48621;SDS011;34421;48.944;9.460;2022-11-20T02:41:18;5.80;;;3.17;;
48621;SDS011;34421;48.944;9.460;2022-11-20T02:43:44;4.78;;;2.67;;
48621;SDS011;34421;48.944;9.460;2022-11-20T02:46:10;7.03;;;3.17;;
48621;SDS011;34421;48.944;9.460;2022-11-20T02:48:35;4.70;;;2.72;;
48621;SDS011;34421;48.944;9.460;2022-11-20T02:51:00;5.97;;;2.80;;
48621;SDS011;34421;48.944;9.460;2022-11-20T02:53:26;4.32;;;2.40;;
48621;SDS011;34421;48.944;9.460;2022-11-20T02:55:51;5.32;;;2.83;;
48621;SDS011;34421;48.944;9.460;2022-11-20T02:58:17;6.10;;;3.30;;
48621;SDS011;34421;48.944;9.460;2022-11-20T03:00:42;6.28;;;3.42;;
48621;SDS011;34421;48.944;9.460;2022-11-20T03:03:07;6.30;;;3.10;;
48621;SDS011;34421;48.944;9.460;2022-11-20T03:05:33;5.85;;;3.25;;
48621;SDS011;34421;48.944;9.460;2022-11-20T03:07:58;5.60;;;3.00;;
48621;SDS011;34421;48.944;9.460;2022-11-20T03:10:24;6.65;;;3.17;;
48621;SDS011;34421;48.944;9.460;2022-11-20T03:12:52;7.97;;;3.17;;
48621;SDS011;34421;48.944;9.460;2022-11-20T03:15:19;6.75;;;3.33;;
48621;SDS011;34421;48.944;9.460;2022-11-20T03:17:44;8.90;;;3.75;;
48621;SDS011;34421;48.944;9.460;2022-11-20T03:20:10;6.32;;;3.47;;
48621;SDS011;34421;48.944;9.460;2022-11-20T03:22:35;6.22;;;3.60;;
48621;SDS011;34421;48.944;9.460;2022-11-20T03:25:01;6.32;;;3.10;;
48621;SDS011;34421;48.944;9.460;2022-11-20T03:27:26;6.10;;;3.72;;
48621;SDS011;34421;48.944;9.460;2022-11-20T03:29:51;5.30;;;3.15;;
48621;SDS011;34421;48.944;9.460;2022-11-20T03:32:17;5.63;;;3.60;;
48621;SDS011;34421;48.944;9.460;2022-11-20T03:34:42;5.55;;;2.80;;
48621;SDS011;34421;48.944;9.460;2022-11-20T03:37:07;6.68;;;3.28;;
48621;SDS011;34421;48.944;9.460;2022-11-20T03:39:32;6.45;;;3.10;;
48621;SDS011;34421;48.944;9.460;2022-11-20T03:41:58;4.95;;;2.42;;
48621;SDS011;34421;48.944;9.460;2022-11-20T03:44:23;5.30;;;2.67;;
48621;SDS011;34421;48.944;9.460;2022-11-20T03:46:48;5.93;;;2.90;;
48621;SDS011;34421;48.944;9.460;2022-11-20T03:49:14;6.13;;;3.00;;
48621;SDS011;34421;48.944;9.460;2022-11-20T03:51:39;5.13;;;2.83;;
48621;SDS011;34421;48.944;9.460;2022-11-20T03:54:06;5.40;;;3.00;;
48621;SDS011;34421;48.944;9.460;2022-11-20T03:56:33;5.35;;;2.90;;
48621;SDS011;34421;48.944;9.460;2022-11-20T03:59:03;4.10;;;2.45;;
48621;SDS011;34421;48.944;9.460;2022-11-20T04:01:29;5.63;;;3.08;;
48621;SDS011;34421;48.944;9.460;2022-11-20T04:03:57;5.70;;;2.85;;
48621;SDS011;34421;48.944;9.460;2022-11-20T04:06:23;5.93;;;3.22;;
48621;SDS011;34421;48.944;9.460;2022-11-20T04:08:51;4.90;;;2.67;;
48621;SDS011;34421;48.944;9.460;2022-11-20T04:11:19;4.18;;;2.10;;
48621;SDS011;34421;48.944;9.460;2022-11-20T04:13:51;4.57;;;2.30;;
48621;SDS011;34421;48.944;9.460;2022-11-20T04:16:19;3.63;;;1.70;;
48621;SDS011;34421;48.944;9.460;2022-11-20T04:18:45;2.55;;;1.40;;
48621;SDS011;34421;48.944;9.460;2022-11-20T04:21:11;2.38;;;1.17;;
48621;SDS011;34421;48.944;9.460;2022-11-20T04:23:37;4.13;;;1.20;;
48621;SDS011;34421;48.944;9.460;2022-11-20T04:26:07;2.65;;;0.80;;
48621;SDS011;34421;48.944;9.460;2022-11-20T04:28:33;1.50;;;0.73;;
48621;SDS011;34421;48.944;9.460;2022-11-20T04:31:03;1.63;;;0.77;;
48621;SDS011;34421;48.944;9.460;2022-11-20T04:33:30;3.08;;;1.20;;
48621;SDS011;34421;48.944;9.460;2022-11-20T04:35:59;2.10;;;1.15;;
48621;SDS011;34421;48.944;9.460;2022-11-20T04:38:26;1.23;;;0.80;;
48621;SDS011;34421;48.944;9.460;2022-11-20T04:40:55;1.88;;;0.95;;
48621;SDS011;34421;48.944;9.460;2022-11-20T04:43:22;1.27;;;0.63;;
48621;SDS011;34421;48.944;9.460;2022-11-20T04:45:51;1.98;;;1.02;;
48621;SDS011;34421;48.944;9.460;2022-11-20T04:48:19;2.13;;;0.95;;
48621;SDS011;34421;48.944;9.460;2022-11-20T04:50:45;2.17;;;1.00;;
48621;SDS011;34421;48.944;9.460;2022-11-20T04:53:10;1.92;;;1.00;;
48621;SDS011;34421;48.944;9.460;2022-11-20T04:55:35;3.40;;;1.20;;
48621;SDS011;34421;48.944;9.460;2022-11-20T04:58:01;1.13;;;0.68;;
48621;SDS011;34421;48.944;9.460;2022-11-20T05:00:26;1.63;;;0.93;;
48621;SDS011;34421;48.944;9.460;2022-11-20T05:02:51;0.90;;;0.60;;
48621;SDS011;34421;48.944;9.460;2022-11-20T05:05:17;1.70;;;1.05;;
48621;SDS011;34421;48.944;9.460;2022-11-20T05:07:43;1.95;;;1.00;;
48621;SDS011;34421;48.944;9.460;2022-11-20T05:10:08;1.42;;;0.65;;
48621;SDS011;34421;48.944;9.460;2022-11-20T05:12:33;1.40;;;1.02;;
48621;SDS011;34421;48.944;9.460;2022-11-20T05:14:59;2.97;;;0.95;;
48621;SDS011;34421;48.944;9.460;2022-11-20T05:17:24;1.08;;;0.60;;
48621;SDS011;34421;48.944;9.460;2022-11-20T05:19:49;2.05;;;0.77;;
48621;SDS011;34421;48.944;9.460;2022-11-20T05:22:15;2.78;;;0.70;;
48621;SDS011;34421;48.944;9.460;2022-11-20T05:24:40;2.35;;;1.17;;
48621;SDS011;34421;48.944;9.460;2022-11-20T05:27:05;1.30;;;0.68;;
48621;SDS011;34421;48.944;9.460;2022-11-20T05:29:31;1.35;;;0.70;;
48621;SDS011;34421;48.944;9.460;2022-11-20T05:31:56;1.42;;;0.80;;
48621;SDS011;34421;48.944;9.460;2022-11-20T05:34:22;1.80;;;0.98;;
48621;SDS011;34421;48.944;9.460;2022-11-20T05:36:47;2.83;;;1.00;;
48621;SDS011;34421;48.944;9.460;2022-11-20T05:39:12;2.28;;;0.90;;
48621;SDS011;34421;48.944;9.460;2022-11-20T05:41:37;2.47;;;0.85;;
48621;SDS011;34421;48.944;9.460;2022-11-20T05:44:03;2.10;;;0.73;;
48621;SDS011;34421;48.944;9.460;2022-11-20T05:46:28;1.80;;;0.70;;
48621;SDS011;34421;48.944;9.460;2022-11-20T05:48:54;2.15;;;0.70;;
48621;SDS011;34421;48.944;9.460;2022-11-20T05:51:19;1.75;;;0.82;;
48621;SDS011;34421;48.944;9.460;2022-11-20T05:53:45;1.77;;;0.90;;
48621;SDS011;34421;48.944;9.460;2022-11-20T05:56:15;1.25;;;0.80;;
48621;SDS011;34421;48.944;9.460;2022-11-20T05:58:42;3.40;;;1.00;;
48621;SDS011;34421;48.944;9.460;2022-11-20T06:03:34;0.90;;;0.50;;
48621;SDS011;34421;48.944;9.460;2022-11-20T06:06:00;1.40;;;0.63;;
48621;SDS011;34421;48.944;9.460;2022-11-20T06:08:26;3.15;;;1.05;;
48621;SDS011;34421;48.944;9.460;2022-11-20T06:10:52;1.00;;;0.70;;
48621;SDS011;34421;48.944;9.460;2022-11-20T06:13:17;1.90;;;0.82;;
48621;SDS011;34421;48.944;9.460;2022-11-20T06:15:47;1.67;;;0.75;;
48621;SDS011;34421;48.944;9.460;2022-11-20T06:18:14;2.08;;;1.10;;
48621;SDS011;34421;48.944;9.460;2022-11-20T06:20:39;2.17;;;0.98;;
48621;SDS011;34421;48.944;9.460;2022-11-20T06:23:04;2.15;;;1.02;;
48621;SDS011;34421;48.944;9.460;2022-11-20T06:25:29;5.53;;;1.45;;
48621;SDS011;34421;48.944;9.460;2022-11-20T06:27:55;1.90;;;1.05;;
48621;SDS011;34421;48.944;9.460;2022-11-20T06:30:20;1.58;;;0.60;;
48621;SDS011;34421;48.944;9.460;2022-11-20T06:32:45;1.35;;;0.60;;
48621;SDS011;34421;48.944;9.460;2022-11-20T06:35:10;1.52;;;0.90;;
48621;SDS011;34421;48.944;9.460;2022-11-20T06:37:36;1.40;;;1.00;;
48621;SDS011;34421;48.944;9.460;2022-11-20T06:40:01;1.60;;;0.95;;
48621;SDS011;34421;48.944;9.460;2022-11-20T06:42:26;2.33;;;0.75;;
48621;SDS011;34421;48.944;9.460;2022-11-20T06:44:52;1.63;;;0.85;;
48621;SDS011;34421;48.944;9.460;2022-11-20T06:47:17;1.80;;;0.90;;
48621;SDS011;34421;48.944;9.460;2022-11-20T06:49:42;1.58;;;0.77;;
48621;SDS011;34421;48.944;9.460;2022-11-20T06:52:08;2.72;;;0.60;;
48621;SDS011;34421;48.944;9.460;2022-11-20T06:54:33;2.63;;;0.93;;
48621;SDS011;34421;48.944;9.460;2022-11-20T06:56:58;1.85;;;0.90;;
48621;SDS011;34421;48.944;9.460;2022-11-20T06:59:24;1.80;;;1.00;;
48621;SDS011;34421;48.944;9.460;2022-11-20T07:01:49;1.85;;;0.98;;
48621;SDS011;34421;48.944;9.460;2022-11-20T07:04:14;1.58;;;0.80;;
48621;SDS011;34421;48.944;9.460;2022-11-20T07:06:40;1.38;;;0.80;;
48621;SDS011;34421;48.944;9.460;2022-11-20T07:09:05;1.83;;;0.75;;
48621;SDS011;34421;48.944;9.460;2022-11-20T07:11:30;2.67;;;0.88;;
48621;SDS011;34421;48.944;9.460;2022-11-20T07:13:56;1.20;;;0.60;;
48621;SDS011;34421;48.944;9.460;2022-11-20T07:16:22;1.95;;;0.82;;
48621;SDS011;34421;48.944;9.460;2022-11-20T07:18:47;1.88;;;0.93;;
48621;SDS011;34421;48.944;9.460;2022-11-20T07:21:12;1.15;;;0.60;;
48621;SDS011;34421;48.944;9.460;2022-11-20T07:23:38;1.45;;;0.70;;
48621;SDS011;34421;48.944;9.460;2022-11-20T07:26:04;1.70;;;0.90;;
48621;SDS011;34421;48.944;9.460;2022-11-20T07:28:30;2.00;;;0.80;;
48621;SDS011;34421;48.944;9.460;2022-11-20T07:30:56;1.60;;;0.77;;
48621;SDS011;34421;48.944;9.460;2022-11-20T07:33:21;1.45;;;0.75;;
48621;SDS011;34421;48.944;9.460;2022-11-20T07:35:46;1.98;;;0.57;;
48621;SDS011;34421;48.944;9.460;2022-11-20T07:38:12;1.45;;;0.68;;
48621;SDS011;34421;48.944;9.460;2022-11-20T07:40:37;1.50;;;0.63;;
48621;SDS011;34421;48.944;9.460;2022-11-20T07:43:02;0.70;;;0.45;;
48621;SDS011;34421;48.944;9.460;2022-11-20T07:45:28;1.17;;;0.50;;
48621;SDS011;34421;48.944;9.460;2022-11-20T07:47:53;1.42;;;0.57;;
48621;SDS011;34421;48.944;9.460;2022-11-20T07:50:19;1.55;;;0.70;;
48621;SDS011;34421;48.944;9.460;2022-11-20T07:52:44;1.20;;;0.60;;
48621;SDS011;34421;48.944;9.460;2022-11-20T07:55:10;1.75;;;0.70;;
48621;SDS011;34421;48.944;9.460;2022-11-20T07:57:36;1.67;;;0.80;;
48621;SDS011;34421;48.944;9.460;2022-11-20T08:00:02;1.15;;;0.80;;
48621;SDS011;34421;48.944;9.460;2022-11-20T08:02:29;1.30;;;0.90;;
48621;SDS011;34421;48.944;9.460;2022-11-20T08:04:54;1.50;;;0.80;;
48621;SDS011;34421;48.944;9.460;2022-11-20T08:07:19;1.05;;;0.55;;
48621;SDS011;34421;48.944;9.460;2022-11-20T08:09:45;1.65;;;0.60;;
48621;SDS011;34421;48.944;9.460;2022-11-20T08:12:16;2.65;;;0.95;;
48621;SDS011;34421;48.944;9.460;2022-11-20T08:15:03;3.13;;;1.00;;
48621;SDS011;34421;48.944;9.460;2022-11-20T08:17:29;1.98;;;1.00;;
48621;SDS011;34421;48.944;9.460;2022-11-20T08:19:54;2.10;;;0.98;;
48621;SDS011;34421;48.944;9.460;2022-11-20T08:22:19;2.17;;;0.85;;
48621;SDS011;34421;48.944;9.460;2022-11-20T08:24:45;2.95;;;1.13;;
48621;SDS011;34421;48.944;9.460;2022-11-20T08:27:11;2.33;;;1.05;;
48621;SDS011;34421;48.944;9.460;2022-11-20T08:29:36;2.92;;;1.50;;
48621;SDS011;34421;48.944;9.460;2022-11-20T08:32:01;1.63;;;0.80;;
48621;SDS011;34421;48.944;9.460;2022-11-20T08:34:27;2.15;;;1.02;;
48621;SDS011;34421;48.944;9.460;2022-11-20T08:36:52;2.50;;;1.15;;
48621;SDS011;34421;48.944;9.460;2022-11-20T08:39:17;2.08;;;1.23;;
48621;SDS011;34421;48.944;9.460;2022-11-20T08:41:42;2.85;;;1.33;;
48621;SDS011;34421;48.944;9.460;2022-11-20T08:44:08;2.70;;;1.27;;
48621;SDS011;34421;48.944;9.460;2022-11-20T08:46:37;1.77;;;0.82;;
48621;SDS011;34421;48.944;9.460;2022-11-20T08:49:06;1.85;;;0.70;;
48621;SDS011;34421;48.944;9.460;2022-11-20T08:51:32;1.70;;;0.68;;
48621;SDS011;34421;48.944;9.460;2022-11-20T08:53:58;0.85;;;0.60;;
48621;SDS011;34421;48.944;9.460;2022-11-20T08:56:23;2.45;;;0.90;;
48621;SDS011;34421;48.944;9.460;2022-11-20T08:58:49;1.50;;;0.95;;
48621;SDS011;34421;48.944;9.460;2022-11-20T09:01:16;2.95;;;1.17;;
48621;SDS011;34421;48.944;9.460;2022-11-20T09:03:42;4.03;;;1.83;;
48621;SDS011;34421;48.944;9.460;2022-11-20T09:06:07;3.65;;;1.40;;
48621;SDS011;34421;48.944;9.460;2022-11-20T09:08:33;2.03;;;0.90;;
48621;SDS011;34421;48.944;9.460;2022-11-20T09:11:00;1.33;;;0.73;;
48621;SDS011;34421;48.944;9.460;2022-11-20T09:13:26;1.40;;;0.70;;
48621;SDS011;34421;48.944;9.460;2022-11-20T09:16:04;3.40;;;0.70;;
48621;SDS011;34421;48.944;9.460;2022-11-20T09:18:32;2.80;;;1.38;;
48621;SDS011;34421;48.944;9.460;2022-11-20T09:21:01;2.42;;;0.73;;
48621;SDS011;34421;48.944;9.460;2022-11-20T09:23:31;1.88;;;0.80;;
48621;SDS011;34421;48.944;9.460;2022-11-20T09:26:00;2.60;;;1.42;;
48621;SDS011;34421;48.944;9.460;2022-11-20T09:28:27;2.58;;;1.40;;
48621;SDS011;34421;48.944;9.460;2022-11-20T09:30:52;1.73;;;0.80;;
48621;SDS011;34421;48.944;9.460;2022-11-20T09:33:18;1.67;;;0.85;;
48621;SDS011;34421;48.944;9.460;2022-11-20T09:35:43;1.55;;;0.70;;
48621;SDS011;34421;48.944;9.460;2022-11-20T09:38:09;1.55;;;0.82;;
48621;SDS011;34421;48.944;9.460;2022-11-20T09:40:36;1.73;;;0.68;;
48621;SDS011;34421;48.944;9.460;2022-11-20T09:48:55;1.75;;;1.05;;
48621;SDS011;34421;48.944;9.460;2022-11-20T09:51:39;2.95;;;1.65;;
48621;SDS011;34421;48.944;9.460;2022-11-20T09:54:13;2.75;;;1.42;;
48621;SDS011;34421;48.944;9.460;2022-11-20T09:56:47;2.15;;;1.27;;
48621;SDS011;34421;48.944;9.460;2022-11-20T10:00:03;1.58;;;0.82;;
48621;SDS011;34421;48.944;9.460;2022-11-20T10:10:43;4.55;;;1.73;;
48621;SDS011;34421;48.944;9.460;2022-11-20T10:21:26;1.75;;;1.02;;
48621;SDS011;34421;48.944;9.460;2022-11-20T10:24:36;1.80;;;0.93;;
48621;SDS011;34421;48.944;9.460;2022-11-20T10:30:13;1.60;;;0.88;;
48621;SDS011;34421;48.944;9.460;2022-11-20T10:32:46;1.83;;;0.80;;
48621;SDS011;34421;48.944;9.460;2022-11-20T10:37:57;1.27;;;0.55;;
48621;SDS011;34421;48.944;9.460;2022-11-20T10:43:03;1.05;;;0.60;;
48621;SDS011;34421;48.944;9.460;2022-11-20T10:48:20;1.17;;;0.60;;
48621;SDS011;34421;48.944;9.460;2022-11-20T10:50:51;0.77;;;0.60;;
48621;SDS011;34421;48.944;9.460;2022-11-20T10:56:19;0.80;;;0.43;;
48621;SDS011;34421;48.944;9.460;2022-11-20T11:01:23;0.60;;;0.30;;
48621;SDS011;34421;48.944;9.460;2022-11-20T11:03:50;3.88;;;0.63;;
48621;SDS011;34421;48.944;9.460;2022-11-20T11:08:49;1.38;;;0.50;;
48621;SDS011;34421;48.944;9.460;2022-11-20T11:11:22;1.73;;;0.75;;
48621;SDS011;34421;48.944;9.460;2022-11-20T11:13:51;1.20;;;0.60;;
48621;SDS011;34421;48.944;9.460;2022-11-20T11:16:34;0.63;;;0.45;;
48621;SDS011;34421;48.944;9.460;2022-11-20T11:19:34;1.17;;;0.50;;
48621;SDS011;34421;48.944;9.460;2022-11-20T11:21:53;1.75;;;0.60;;
48621;SDS011;34421;48.944;9.460;2022-11-20T11:24:28;1.15;;;0.50;;
48621;SDS011;34421;48.944;9.460;2022-11-20T11:26:58;1.85;;;0.50;;
48621;SDS011;34421;48.944;9.460;2022-11-20T11:29:32;1.20;;;0.50;;
48621;SDS011;34421;48.944;9.460;2022-11-20T11:32:08;1.08;;;0.60;;
48621;SDS011;34421;48.944;9.460;2022-11-20T11:34:44;1.15;;;0.68;;
48621;SDS011;34421;48.944;9.460;2022-11-20T11:37:17;1.50;;;0.68;;
48621;SDS011;34421;48.944;9.460;2022-11-20T11:39:44;1.35;;;0.70;;
48621;SDS011;34421;48.944;9.460;2022-11-20T11:42:13;1.75;;;0.90;;
48621;SDS011;34421;48.944;9.460;2022-11-20T11:44:44;1.80;;;0.90;;
48621;SDS011;34421;48.944;9.460;2022-11-20T11:47:35;0.80;;;0.60;;
48621;SDS011;34421;48.944;9.460;2022-11-20T11:52:36;1.67;;;1.05;;
48621;SDS011;34421;48.944;9.460;2022-11-20T11:55:07;1.77;;;0.90;;
48621;SDS011;34421;48.944;9.460;2022-11-20T11:57:41;1.48;;;0.80;;
48621;SDS011;34421;48.944;9.460;2022-11-20T12:00:14;1.70;;;0.90;;
48621;SDS011;34421;48.944;9.460;2022-11-20T12:10:40;2.90;;;0.63;;
48621;SDS011;34421;48.944;9.460;2022-11-20T12:15:45;3.13;;;0.90;;
48621;SDS011;34421;48.944;9.460;2022-11-20T12:18:16;2.25;;;1.10;;
48621;SDS011;34421;48.944;9.460;2022-11-20T12:20:46;2.45;;;1.08;;
48621;SDS011;34421;48.944;9.460;2022-11-20T12:23:26;1.55;;;0.70;;
48621;SDS011;34421;48.944;9.460;2022-11-20T12:26:00;1.92;;;0.70;;
48621;SDS011;34421;48.944;9.460;2022-11-20T12:34:24;3.00;;;0.80;;
48621;SDS011;34421;48.944;9.460;2022-11-20T12:37:10;2.13;;;0.60;;
48621;SDS011;34421;48.944;9.460;2022-11-20T12:39:49;1.02;;;0.45;;
48621;SDS011;34421;48.944;9.460;2022-11-20T12:53:33;1.73;;;0.68;;
48621;SDS011;34421;48.944;9.460;2022-11-20T12:59:23;1.30;;;0.75;;
48621;SDS011;34421;48.944;9.460;2022-11-20T13:07:29;2.08;;;0.52;;
48621;SDS011;34421;48.944;9.460;2022-11-20T13:09:55;1.25;;;0.63;;
48621;SDS011;34421;48.944;9.460;2022-11-20T13:12:24;1.10;;;0.30;;
48621;SDS011;34421;48.944;9.460;2022-11-20T13:15:08;1.17;;;0.40;;
48621;SDS011;34421;48.944;9.460;2022-11-20T13:17:54;2.85;;;0.52;;
48621;SDS011;34421;48.944;9.460;2022-11-20T13:20:23;1.40;;;0.60;;
48621;SDS011;34421;48.944;9.460;2022-11-20T13:22:49;1.50;;;0.60;;
48621;SDS011;34421;48.944;9.460;2022-11-20T13:25:28;1.52;;;0.45;;
48621;SDS011;34421;48.944;9.460;2022-11-20T13:27:56;1.45;;;0.40;;
48621;SDS011;34421;48.944;9.460;2022-11-20T13:30:24;0.52;;;0.30;;
48621;SDS011;34421;48.944;9.460;2022-11-20T13:40:37;1.27;;;0.50;;
48621;SDS011;34421;48.944;9.460;2022-11-20T13:43:16;0.80;;;0.40;;
48621;SDS011;34421;48.944;9.460;2022-11-20T13:45:56;1.50;;;0.47;;
48621;SDS011;34421;48.944;9.460;2022-11-20T13:48:26;1.13;;;0.32;;
48621;SDS011;34421;48.944;9.460;2022-11-20T14:01:57;1.23;;;0.47;;
48621;SDS011;34421;48.944;9.460;2022-11-20T14:04:26;0.65;;;0.32;;
48621;SDS011;34421;48.944;9.460;2022-11-20T14:06:57;2.72;;;0.30;;
48621;SDS011;34421;48.944;9.460;2022-11-20T14:09:30;0.98;;;0.30;;
48621;SDS011;34421;48.944;9.460;2022-11-20T14:11:57;1.00;;;0.32;;
48621;SDS011;34421;48.944;9.460;2022-11-20T14:14:23;0.98;;;0.47;;
48621;SDS011;34421;48.944;9.460;2022-11-20T14:16:51;2.45;;;0.40;;
48621;SDS011;34421;48.944;9.460;2022-11-20T14:21:48;1.38;;;0.30;;
48621;SDS011;34421;48.944;9.460;2022-11-20T14:24:19;1.98;;;0.68;;
48621;SDS011;34421;48.944;9.460;2022-11-20T14:26:46;1.27;;;0.63;;
48621;SDS011;34421;48.944;9.460;2022-11-20T14:29:13;3.38;;;0.90;;
48621;SDS011;34421;48.944;9.460;2022-11-20T14:31:40;1.58;;;0.70;;
48621;SDS011;34421;48.944;9.460;2022-11-20T14:34:13;1.95;;;0.85;;
48621;SDS011;34421;48.944;9.460;2022-11-20T14:36:42;0.68;;;0.40;;
48621;SDS011;34421;48.944;9.460;2022-11-20T14:39:19;0.65;;;0.22;;
48621;SDS011;34421;48.944;9.460;2022-11-20T14:41:52;0.90;;;0.38;;
48621;SDS011;34421;48.944;9.460;2022-11-20T14:44:19;0.55;;;0.30;;
48621;SDS011;34421;48.944;9.460;2022-11-20T14:46:52;0.40;;;0.22;;
48621;SDS011;34421;48.944;9.460;2022-11-20T14:49:18;1.17;;;0.20;;
48621;SDS011;34421;48.944;9.460;2022-11-20T14:51:44;0.60;;;0.20;;
48621;SDS011;34421;48.944;9.460;2022-11-20T14:54:12;0.63;;;0.40;;
48621;SDS011;34421;48.944;9.460;2022-11-20T14:56:39;0.93;;;0.45;;
48621;SDS011;34421;48.944;9.460;2022-11-20T14:59:05;0.95;;;0.30;;
48621;SDS011;34421;48.944;9.460;2022-11-20T15:01:32;0.45;;;0.30;;
48621;SDS011;34421;48.944;9.460;2022-11-20T15:04:09;1.17;;;0.30;;
48621;SDS011;34421;48.944;9.460;2022-11-20T15:06:36;1.15;;;0.30;;
48621;SDS011;34421;48.944;9.460;2022-11-20T15:09:04;2.05;;;1.20;;
48621;SDS011;34421;48.944;9.460;2022-11-20T15:11:33;1.48;;;0.73;;
48621;SDS011;34421;48.944;9.460;2022-11-20T15:14:04;0.90;;;0.50;;
48621;SDS011;34421;48.944;9.460;2022-11-20T15:16:31;0.98;;;0.43;;
48621;SDS011;34421;48.944;9.460;2022-11-20T15:18:57;0.95;;;0.40;;
48621;SDS011;34421;48.944;9.460;2022-11-20T15:21:23;1.90;;;0.50;;
48621;SDS011;34421;48.944;9.460;2022-11-20T15:23:49;1.95;;;0.40;;
48621;SDS011;34421;48.944;9.460;2022-11-20T15:26:18;0.82;;;0.32;;
48621;SDS011;34421;48.944;9.460;2022-11-20T15:28:48;0.63;;;0.60;;
48621;SDS011;34421;48.944;9.460;2022-11-20T15:31:15;0.73;;;0.50;;
48621;SDS011;34421;48.944;9.460;2022-11-20T15:33:42;0.80;;;0.43;;
48621;SDS011;34421;48.944;9.460;2022-11-20T15:36:08;1.30;;;1.00;;
48621;SDS011;34421;48.944;9.460;2022-11-20T15:38:34;0.93;;;0.30;;
48621;SDS011;34421;48.944;9.460;2022-11-20T15:41:00;2.40;;;2.00;;
48621;SDS011;34421;48.944;9.460;2022-11-20T15:43:25;0.93;;;0.80;;
48621;SDS011;34421;48.944;9.460;2022-11-20T15:45:51;1.52;;;0.60;;
48621;SDS011;34421;48.944;9.460;2022-11-20T15:48:47;2.38;;;0.75;;
48621;SDS011;34421;48.944;9.460;2022-11-20T15:51:29;2.22;;;1.30;;
48621;SDS011;34421;48.944;9.460;2022-11-20T15:53:58;1.30;;;0.80;;
48621;SDS011;34421;48.944;9.460;2022-11-20T15:56:23;2.30;;;1.20;;
48621;SDS011;34421;48.944;9.460;2022-11-20T15:58:49;1.35;;;0.80;;
48621;SDS011;34421;48.944;9.460;2022-11-20T16:01:18;1.52;;;0.60;;
48621;SDS011;34421;48.944;9.460;2022-11-20T16:03:46;1.85;;;0.60;;
48621;SDS011;34421;48.944;9.460;2022-11-20T16:06:12;1.10;;;0.60;;
48621;SDS011;34421;48.944;9.460;2022-11-20T16:08:37;1.55;;;1.00;;
48621;SDS011;34421;48.944;9.460;2022-11-20T16:11:03;2.85;;;1.15;;
48621;SDS011;34421;48.944;9.460;2022-11-20T16:13:30;2.35;;;1.13;;
48621;SDS011;34421;48.944;9.460;2022-11-20T16:16:22;5.80;;;2.80;;
48621;SDS011;34421;48.944;9.460;2022-11-20T16:18:54;7.22;;;4.00;;
48621;SDS011;34421;48.944;9.460;2022-11-20T16:21:20;3.75;;;2.28;;
48621;SDS011;34421;48.944;9.460;2022-11-20T16:23:45;3.90;;;2.20;;
48621;SDS011;34421;48.944;9.460;2022-11-20T16:26:13;3.03;;;1.48;;
48621;SDS011;34421;48.944;9.460;2022-11-20T16:28:40;1.95;;;1.10;;
48621;SDS011;34421;48.944;9.460;2022-11-20T16:31:13;2.40;;;1.23;;
48621;SDS011;34421;48.944;9.460;2022-11-20T16:33:40;3.00;;;1.35;;
48621;SDS011;34421;48.944;9.460;2022-11-20T16:36:09;2.20;;;1.38;;
48621;SDS011;34421;48.944;9.460;2022-11-20T16:38:36;4.43;;;2.00;;
48621;SDS011;34421;48.944;9.460;2022-11-20T16:41:01;5.55;;;2.70;;
48621;SDS011;34421;48.944;9.460;2022-11-20T16:43:27;5.57;;;2.90;;
48621;SDS011;34421;48.944;9.460;2022-11-20T16:45:52;5.03;;;2.90;;
48621;SDS011;34421;48.944;9.460;2022-11-20T16:48:18;5.18;;;2.88;;
48621;SDS011;34421;48.944;9.460;2022-11-20T16:50:47;4.15;;;1.90;;
48621;SDS011;34421;48.944;9.460;2022-11-20T16:53:17;3.60;;;1.52;;